Time;durP1;ratioP1;P1;durP2;ratioP2;P2;SDS_P1;SDS_P2;PMS_P1;PMS_P2;Temp;Humidity;BMP_temperature;BMP_pressure;BME280_temperature;BME280_humidity;BME280_pressure;Samples;Min_cycle;Max_cycle;Signal;HPM_P1;HPM_P2
2022/06/16 00:01:29;;;;;;;5.30;4.90;;;24.40;95.70;;;;;;6214721;23;20036;-74
2022/06/16 00:03:55;;;;;;;5.60;5.20;;;24.40;95.80;;;;;;6213554;23;20092;-73
2022/06/16 00:06:21;;;;;;;5.32;4.93;;;24.40;95.90;;;;;;6215166;23;19989;-74
2022/06/16 00:08:47;;;;;;;5.68;5.22;;;24.30;96.00;;;;;;6215083;23;20004;-74
2022/06/16 00:11:19;;;;;;;7.70;5.63;;;24.40;96.10;;;;;;6215105;23;20035;-74
2022/06/16 00:13:47;;;;;;;5.55;5.07;;;24.30;96.20;;;;;;6213416;23;20012;-74
2022/06/16 00:16:13;;;;;;;5.85;4.90;;;24.20;96.40;;;;;;6213382;23;20035;-74
2022/06/16 00:18:39;;;;;;;5.38;4.97;;;24.30;96.40;;;;;;6213588;23;20087;-74
2022/06/16 00:21:06;;;;;;;5.53;5.13;;;24.30;96.50;;;;;;6214491;23;20004;-74
2022/06/16 00:23:32;;;;;;;5.45;5.15;;;24.30;96.50;;;;;;6214998;23;20001;-74
2022/06/16 00:25:58;;;;;;;7.93;5.65;;;24.30;96.50;;;;;;6214627;23;19996;-74
2022/06/16 00:28:24;;;;;;;6.47;5.82;;;24.30;96.50;;;;;;6214827;23;20004;-74
2022/06/16 00:30:50;;;;;;;5.90;5.38;;;24.30;96.50;;;;;;6214844;23;20071;-74
2022/06/16 00:33:16;;;;;;;5.03;4.72;;;24.30;96.90;;;;;;6214804;23;20055;-74
2022/06/16 00:35:42;;;;;;;5.57;5.20;;;24.30;96.80;;;;;;6214665;23;20433;-74
2022/06/16 00:38:08;;;;;;;5.32;5.00;;;24.30;96.90;;;;;;6214757;23;20008;-74
2022/06/16 00:40:34;;;;;;;5.72;5.03;;;24.30;97.40;;;;;;6214769;23;20001;-74
2022/06/16 00:42:59;;;;;;;6.47;5.35;;;24.30;97.00;;;;;;6214572;23;20001;-74
2022/06/16 00:45:46;;;;;;;5.90;5.50;;;24.30;96.80;;;;;;6214628;23;20047;-74
2022/06/16 00:48:27;;;;;;;5.55;5.18;;;24.30;96.80;;;;;;6212896;23;20082;-74
2022/06/16 00:51:25;;;;;;;5.45;5.05;;;24.30;96.80;;;;;;6214941;23;20004;-74
2022/06/16 00:53:54;;;;;;;6.30;5.80;;;24.30;96.80;;;;;;6208011;23;20028;-74
2022/06/16 00:56:21;;;;;;;6.25;5.75;;;24.40;96.90;;;;;;6214499;23;20008;-74
2022/06/16 00:58:58;;;;;;;6.03;5.53;;;24.30;96.90;;;;;;6214698;23;20348;-74
2022/06/16 01:01:24;;;;;;;6.35;5.72;;;24.30;97.20;;;;;;6212692;23;20027;-74
2022/06/16 01:06:35;;;;;;;6.57;5.88;;;24.20;97.40;;;;;;6214355;23;20039;-74
2022/06/16 01:09:05;;;;;;;6.30;5.80;;;24.10;97.70;;;;;;6214611;23;19992;-74
2022/06/16 01:14:53;;;;;;;6.75;6.15;;;24.10;97.50;;;;;;6214392;23;20023;-74
2022/06/16 01:17:57;;;;;;;5.97;5.47;;;24.00;98.00;;;;;;6195165;23;20011;-74
2022/06/16 01:20:46;;;;;;;6.50;5.80;;;24.00;98.10;;;;;;6214379;23;20491;-74
2022/06/16 01:23:25;;;;;;;6.88;6.35;;;23.90;98.50;;;;;;6212695;23;20561;-74
2022/06/16 01:25:59;;;;;;;6.22;5.82;;;23.80;98.80;;;;;;6214461;23;19993;-74
2022/06/16 01:28:29;;;;;;;8.63;6.05;;;23.80;98.90;;;;;;6212872;23;20008;-74
2022/06/16 01:31:15;;;;;;;6.15;5.75;;;23.70;99.00;;;;;;6214452;23;20004;-73
2022/06/16 01:33:55;;;;;;;6.22;5.72;;;23.60;99.20;;;;;;6214088;23;20000;-73
2022/06/16 01:36:34;;;;;;;6.95;6.22;;;23.60;99.40;;;;;;6214043;23;20000;-74
2022/06/16 01:39:19;;;;;;;6.10;5.63;;;23.60;99.40;;;;;;6214315;23;20011;-74
2022/06/16 01:41:53;;;;;;;8.57;6.97;;;23.50;99.60;;;;;;6212512;23;20005;-74
2022/06/16 01:44:38;;;;;;;6.63;6.13;;;23.40;99.70;;;;;;6214208;23;19997;-74
2022/06/16 01:47:11;;;;;;;8.60;6.25;;;23.50;99.90;;;;;;6214197;23;20047;-74
2022/06/16 01:50:06;;;;;;;7.18;6.60;;;23.40;99.90;;;;;;6213880;23;20035;-74
2022/06/16 01:52:49;;;;;;;7.20;6.53;;;23.40;99.90;;;;;;6209312;23;20001;-73
2022/06/16 01:55:19;;;;;;;6.88;5.97;;;23.40;99.90;;;;;;6213856;23;19997;-74
2022/06/16 01:58:02;;;;;;;6.43;6.03;;;23.40;99.90;;;;;;6213916;23;20004;-73
2022/06/16 02:00:28;;;;;;;6.72;6.07;;;23.30;99.90;;;;;;6213621;23;20008;-73
2022/06/16 02:03:07;;;;;;;6.43;5.85;;;23.30;99.90;;;;;;6214075;23;20472;-73
2022/06/16 02:05:39;;;;;;;7.13;6.47;;;23.10;99.90;;;;;;6212208;23;20027;-74
2022/06/16 02:08:14;;;;;;;6.78;6.18;;;23.10;99.90;;;;;;6213953;23;20007;-74
2022/06/16 02:10:44;;;;;;;6.70;6.20;;;23.10;99.90;;;;;;6213979;23;20059;-74
2022/06/16 02:13:15;;;;;;;7.32;6.60;;;23.10;99.90;;;;;;6214005;23;20003;-74
2022/06/16 02:15:46;;;;;;;6.60;6.10;;;23.10;99.90;;;;;;6212283;23;20317;-73
2022/06/16 02:18:17;;;;;;;7.13;6.43;;;23.10;99.90;;;;;;6213737;23;20076;-74
2022/06/16 02:21:01;;;;;;;8.63;6.50;;;23.00;99.90;;;;;;6213855;23;20005;-73
2022/06/16 02:23:27;;;;;;;10.05;6.70;;;23.00;99.90;;;;;;6212034;23;20008;-74
2022/06/16 02:25:57;;;;;;;6.78;6.38;;;23.00;99.90;;;;;;6213382;23;20007;-73
2022/06/16 02:28:23;;;;;;;6.95;6.55;;;22.90;99.90;;;;;;6213643;23;20007;-73
2022/06/16 02:30:55;;;;;;;7.10;6.60;;;22.90;99.90;;;;;;6212217;23;20062;-74
2022/06/16 02:33:45;;;;;;;7.10;6.60;;;22.90;99.90;;;;;;6213890;23;20011;-74
2022/06/16 02:36:48;;;;;;;6.35;5.95;;;22.90;99.90;;;;;;6213599;23;20023;-73
2022/06/16 02:39:20;;;;;;;6.38;6.05;;;22.90;99.90;;;;;;6213373;23;20000;-74
2022/06/16 02:42:17;;;;;;;7.43;6.68;;;22.80;99.90;;;;;;6213508;23;20337;-74
2022/06/16 02:44:51;;;;;;;7.15;6.65;;;22.80;99.90;;;;;;6211995;23;20001;-74
2022/06/16 02:48:07;;;;;;;7.15;6.40;;;22.80;99.90;;;;;;6213543;23;20008;-73
2022/06/16 02:50:45;;;;;;;6.93;6.35;;;22.80;99.90;;;;;;6174980;23;20343;-74
2022/06/16 02:53:56;;;;;;;6.75;6.10;;;22.70;99.90;;;;;;6213653;23;20390;-74
2022/06/16 02:56:30;;;;;;;7.10;6.53;;;22.60;99.90;;;;;;6213278;23;20083;-74
2022/06/16 02:59:04;;;;;;;7.07;6.47;;;22.60;99.90;;;;;;6213442;23;20034;-73
2022/06/16 03:01:32;;;;;;;7.97;6.70;;;22.60;99.90;;;;;;6213485;23;20009;-74
2022/06/16 03:04:04;;;;;;;8.15;7.07;;;22.60;99.90;;;;;;6213557;23;20374;-73
2022/06/16 03:06:30;;;;;;;6.57;6.18;;;22.60;99.90;;;;;;6213322;23;20428;-74
2022/06/16 03:08:58;;;;;;;7.25;6.75;;;22.50;99.90;;;;;;6213545;23;20004;-74
2022/06/16 03:11:24;;;;;;;7.65;6.75;;;22.50;99.90;;;;;;6213490;23;19996;-74
2022/06/16 03:13:49;;;;;;;7.25;6.55;;;22.50;99.90;;;;;;6212072;23;20004;-73
2022/06/16 03:16:15;;;;;;;7.53;6.78;;;22.50;99.90;;;;;;6213169;23;20067;-73
2022/06/16 03:18:41;;;;;;;6.85;6.45;;;22.50;99.90;;;;;;6213578;23;20008;-74
2022/06/16 03:21:07;;;;;;;7.47;6.78;;;22.50;99.90;;;;;;6213282;23;20375;-74
2022/06/16 03:23:32;;;;;;;7.93;7.22;;;22.50;99.90;;;;;;6213318;23;20007;-73
2022/06/16 03:25:59;;;;;;;7.50;6.80;;;22.50;99.90;;;;;;6213466;23;20028;-73
2022/06/16 03:28:25;;;;;;;7.60;6.90;;;22.40;99.90;;;;;;6213338;23;19996;-74
2022/06/16 03:30:51;;;;;;;6.97;6.28;;;22.40;99.90;;;;;;6213301;23;20005;-74
2022/06/16 03:33:18;;;;;;;7.82;7.18;;;22.30;99.90;;;;;;6213432;23;20000;-74
2022/06/16 03:35:44;;;;;;;8.30;7.50;;;22.40;99.90;;;;;;6213350;23;20005;-74
2022/06/16 03:40:57;;;;;;;7.18;6.68;;;22.30;99.90;;;;;;6213150;23;20019;-73
2022/06/16 03:43:23;;;;;;;6.80;6.30;;;22.30;99.90;;;;;;6213446;23;20000;-73
2022/06/16 03:45:48;;;;;;;8.63;7.15;;;22.30;99.90;;;;;;6213270;23;20011;-73
2022/06/16 03:48:14;;;;;;;7.70;7.05;;;22.20;99.90;;;;;;6213250;23;20451;-73
2022/06/16 03:50:40;;;;;;;8.02;7.30;;;22.20;99.90;;;;;;6213226;23;20051;-74
2022/06/16 03:53:06;;;;;;;7.03;6.45;;;22.20;99.90;;;;;;6213494;23;20011;-74
2022/06/16 03:55:31;;;;;;;7.40;6.70;;;22.20;99.90;;;;;;6213412;23;20079;-74
2022/06/16 03:57:58;;;;;;;7.70;6.93;;;22.10;99.90;;;;;;6215324;23;20543;-74
2022/06/16 04:00:24;;;;;;;8.65;7.80;;;22.10;99.90;;;;;;6213323;23;20021;-73
2022/06/16 04:05:35;;;;;;;7.82;7.13;;;22.20;99.90;;;;;;6214900;23;20459;-73
2022/06/16 04:08:01;;;;;;;6.75;6.25;;;22.30;99.90;;;;;;6215134;23;20067;-74
2022/06/16 04:10:27;;;;;;;8.32;7.60;;;22.30;99.90;;;;;;6215116;23;20376;-74
2022/06/16 04:12:53;;;;;;;9.45;6.97;;;22.30;99.90;;;;;;6213152;23;20009;-74
2022/06/16 04:15:18;;;;;;;7.53;6.22;;;22.30;99.90;;;;;;6214948;23;20460;-73
2022/06/16 04:17:44;;;;;;;7.78;7.10;;;22.30;99.90;;;;;;6214499;23;20441;-74
2022/06/16 04:20:13;;;;;;;8.30;7.30;;;22.20;99.90;;;;;;6213170;23;20096;-73
2022/06/16 04:22:40;;;;;;;8.32;7.60;;;22.20;99.90;;;;;;6214918;23;20127;-73
2022/06/16 04:25:09;;;;;;;8.05;7.45;;;22.30;99.90;;;;;;6214867;23;20080;-74
2022/06/16 04:27:35;;;;;;;7.72;7.15;;;22.30;99.90;;;;;;6214909;23;20086;-74
2022/06/16 04:30:01;;;;;;;7.72;7.07;;;22.30;99.90;;;;;;6214771;23;20001;-74
2022/06/16 04:32:27;;;;;;;7.45;6.78;;;22.20;99.90;;;;;;6214795;23;20444;-74
2022/06/16 04:34:53;;;;;;;11.38;7.28;;;22.30;99.90;;;;;;6214518;23;20007;-73
2022/06/16 04:37:18;;;;;;;8.52;7.40;;;22.30;99.90;;;;;;6214661;23;20004;-74
2022/06/16 04:39:44;;;;;;;8.18;7.20;;;22.40;99.90;;;;;;6212997;23;20082;-74
2022/06/16 04:42:10;;;;;;;7.45;6.63;;;22.40;99.90;;;;;;6214710;23;20001;-73
2022/06/16 04:44:35;;;;;;;12.48;8.00;;;22.50;99.90;;;;;;6214357;23;20007;-74
2022/06/16 04:47:04;;;;;;;7.82;7.05;;;22.50;99.90;;;;;;6214427;23;19997;-74
2022/06/16 04:49:29;;;;;;;8.25;7.50;;;22.40;99.90;;;;;;6214782;23;20000;-74
2022/06/16 04:51:55;;;;;;;7.50;6.90;;;22.50;99.90;;;;;;6214574;23;20340;-73
2022/06/16 04:54:21;;;;;;;8.70;8.00;;;22.60;99.90;;;;;;6214254;23;20000;-74
2022/06/16 04:56:47;;;;;;;8.38;7.55;;;22.60;99.90;;;;;;6214693;23;20009;-74
2022/06/16 04:59:13;;;;;;;7.18;6.68;;;22.60;99.90;;;;;;6214599;23;20080;-73
2022/06/16 05:01:40;;;;;;;8.38;7.57;;;22.60;99.90;;;;;;6212467;23;20511;-74
2022/06/16 05:04:06;;;;;;;8.18;7.20;;;22.70;99.90;;;;;;6214541;23;20001;-74
2022/06/16 05:06:32;;;;;;;7.95;7.15;;;22.80;99.90;;;;;;6214103;23;19996;-74
2022/06/16 05:08:58;;;;;;;7.97;7.28;;;22.80;99.90;;;;;;6214046;23;20025;-74
2022/06/16 05:11:24;;;;;;;7.32;6.63;;;22.80;99.90;;;;;;6214276;23;20012;-73
2022/06/16 05:13:50;;;;;;;8.00;7.15;;;23.00;99.90;;;;;;6214548;23;20000;-73
2022/06/16 05:16:15;;;;;;;10.90;6.55;;;23.10;99.90;;;;;;6213978;23;20005;-74
2022/06/16 05:18:41;;;;;;;8.20;7.45;;;23.10;99.90;;;;;;6214415;23;20027;-74
2022/06/16 05:21:09;;;;;;;7.97;7.32;;;23.20;99.90;;;;;;6214399;23;20008;-74
2022/06/16 05:23:35;;;;;;;7.05;6.57;;;23.20;99.90;;;;;;6214217;23;20008;-74
2022/06/16 05:26:02;;;;;;;8.95;7.10;;;23.30;99.90;;;;;;6212410;23;20380;-73
2022/06/16 05:28:31;;;;;;;7.80;7.20;;;23.30;99.90;;;;;;6214341;23;20074;-74
2022/06/16 05:30:57;;;;;;;7.78;7.18;;;23.40;99.90;;;;;;6214255;23;20104;-73
2022/06/16 05:33:23;;;;;;;6.95;6.50;;;23.50;99.90;;;;;;6214090;23;20004;-74
2022/06/16 05:36:03;;;;;;;8.10;7.03;;;23.50;99.90;;;;;;6212301;23;20340;-73
2022/06/16 05:38:29;;;;;;;7.40;6.80;;;23.60;99.90;;;;;;6214017;23;20028;-74
2022/06/16 05:41:01;;;;;;;8.30;7.13;;;23.70;99.90;;;;;;6214034;23;20008;-74
2022/06/16 05:43:27;;;;;;;;;;;23.70;99.90;;;;;;6214677;23;20079;-74
2022/06/16 05:45:53;;;;;;;7.18;6.55;;;23.80;99.90;;;;;;6213942;23;19931;-74
2022/06/16 05:48:19;;;;;;;7.25;6.57;;;23.80;99.90;;;;;;6214016;23;20447;-74
2022/06/16 05:50:45;;;;;;;7.63;6.20;;;23.90;99.90;;;;;;6214155;23;20380;-74
2022/06/16 05:53:11;;;;;;;7.35;6.60;;;23.90;99.90;;;;;;6212377;23;20005;-74
2022/06/16 05:55:37;;;;;;;6.95;6.18;;;24.00;99.90;;;;;;6213920;23;20005;-74
2022/06/16 05:58:02;;;;;;;6.78;6.22;;;24.00;99.90;;;;;;6213904;23;20004;-74
2022/06/16 06:00:29;;;;;;;7.03;6.32;;;24.00;99.90;;;;;;6213814;23;20084;-74
2022/06/16 06:02:58;;;;;;;6.18;5.63;;;24.10;99.90;;;;;;6213798;23;20012;-74
2022/06/16 06:05:27;;;;;;;6.18;5.50;;;24.20;99.90;;;;;;6213415;23;20397;-74
2022/06/16 06:16:25;;;;;;;5.75;5.35;;;24.40;99.90;;;;;;6185053;23;20189;-74
2022/06/16 06:18:55;;;;;;;5.53;5.13;;;24.40;99.90;;;;;;6213623;23;20033;-74
2022/06/16 06:21:58;;;;;;;5.72;5.30;;;24.50;99.90;;;;;;6211869;23;20322;-74
2022/06/16 06:24:09;;;;;;;6.18;4.97;;;24.50;98.20;;;;;;6213384;23;20436;-74
2022/06/16 06:26:35;;;;;;;4.70;4.40;;;24.60;98.10;;;;;;6213789;23;20487;-73
2022/06/16 06:29:01;;;;;;;5.95;5.40;;;24.60;98.50;;;;;;6212061;23;20027;-73
2022/06/16 06:31:27;;;;;;;5.05;4.63;;;24.60;96.10;;;;;;6213194;23;20124;-74
2022/06/16 06:33:52;;;;;;;5.07;4.38;;;24.60;94.60;;;;;;6212176;23;20000;-74
2022/06/16 06:36:18;;;;;;;5.25;4.55;;;24.60;94.10;;;;;;6214186;23;20008;-73
2022/06/16 06:38:44;;;;;;;4.75;4.40;;;24.60;95.30;;;;;;6212154;23;20036;-74
2022/06/16 06:41:10;;;;;;;4.68;4.35;;;24.60;95.80;;;;;;6214164;23;20036;-73
2022/06/16 06:43:36;;;;;;;5.18;4.70;;;24.60;95.50;;;;;;6211144;23;20001;-74
2022/06/16 06:46:01;;;;;;;4.70;4.13;;;24.60;93.40;;;;;;6210935;23;20011;-73
2022/06/16 06:48:27;;;;;;;4.95;4.18;;;24.60;93.50;;;;;;6211498;23;20046;-74
2022/06/16 06:50:53;;;;;;;5.07;4.57;;;24.70;93.30;;;;;;6212912;23;20008;-74
2022/06/16 06:53:18;;;;;;;6.43;4.28;;;24.70;94.10;;;;;;6214660;23;20000;-74
2022/06/16 06:55:46;;;;;;;5.55;4.97;;;24.80;93.30;;;;;;6214150;23;20005;-74
2022/06/16 06:58:23;;;;;;;4.82;4.50;;;24.80;92.20;;;;;;6214405;23;20001;-74
2022/06/16 07:00:53;;;;;;;7.22;5.22;;;24.90;92.60;;;;;;6214372;23;20009;-74
2022/06/16 07:03:21;;;;;;;4.93;4.53;;;24.90;92.30;;;;;;6211733;23;20004;-74
2022/06/16 07:05:48;;;;;;;5.80;5.28;;;25.00;93.50;;;;;;6211138;23;20905;-74
2022/06/16 07:08:14;;;;;;;5.05;4.55;;;25.10;94.30;;;;;;6212962;23;20437;-74
2022/06/16 07:10:40;;;;;;;5.20;4.90;;;25.10;93.70;;;;;;6212688;23;20012;-74
2022/06/16 07:13:07;;;;;;;6.63;5.50;;;25.10;93.40;;;;;;6211147;23;20005;-74
2022/06/16 07:15:34;;;;;;;9.02;5.10;;;25.20;93.50;;;;;;6212723;23;20007;-74
2022/06/16 07:18:00;;;;;;;5.50;4.65;;;25.20;94.40;;;;;;6212842;23;20220;-74
2022/06/16 07:20:25;;;;;;;7.07;4.90;;;25.30;95.00;;;;;;6212937;23;20005;-74
2022/06/16 07:22:51;;;;;;;5.32;4.82;;;25.30;95.10;;;;;;6212881;23;20508;-74
2022/06/16 07:25:18;;;;;;;7.18;5.45;;;25.40;95.30;;;;;;6212857;23;20028;-74
2022/06/16 07:27:44;;;;;;;5.57;5.07;;;25.40;93.60;;;;;;6211155;23;20499;-74
2022/06/16 07:30:14;;;;;;;6.00;5.50;;;25.40;93.30;;;;;;6209100;23;20004;-73
2022/06/16 07:32:45;;;;;;;5.85;5.45;;;25.50;93.10;;;;;;6210559;23;20008;-74
2022/06/16 07:35:13;;;;;;;10.80;5.30;;;25.50;93.40;;;;;;6209656;23;20142;-74
2022/06/16 07:37:39;;;;;;;6.63;5.72;;;25.50;94.80;;;;;;6210701;23;20301;-74
2022/06/16 07:40:06;;;;;;;5.13;4.72;;;25.60;95.50;;;;;;6210120;23;20007;-73
2022/06/16 07:42:33;;;;;;;5.57;5.10;;;25.60;94.40;;;;;;6210304;23;20062;-73
2022/06/16 07:45:00;;;;;;;5.57;5.07;;;25.60;95.00;;;;;;6210383;23;20008;-73
2022/06/16 07:47:26;;;;;;;7.10;5.05;;;25.60;95.00;;;;;;6209449;23;20027;-73
2022/06/16 07:49:52;;;;;;;7.68;5.65;;;25.50;95.10;;;;;;6209988;23;19997;-73
2022/06/16 07:52:18;;;;;;;5.57;5.07;;;25.50;95.90;;;;;;6211182;23;20027;-74
2022/06/16 07:54:46;;;;;;;5.90;5.30;;;25.50;95.70;;;;;;6208016;23;20432;-74
2022/06/16 07:57:13;;;;;;;6.68;5.45;;;25.50;94.40;;;;;;6209714;23;20093;-73
2022/06/16 07:59:38;;;;;;;5.53;5.22;;;25.60;95.20;;;;;;6210159;23;20028;-74
2022/06/16 08:02:04;;;;;;;6.82;5.72;;;25.60;96.40;;;;;;6211044;23;20004;-73
2022/06/16 08:04:30;;;;;;;6.63;5.32;;;25.70;96.70;;;;;;6210917;23;20051;-74
2022/06/16 08:07:02;;;;;;;5.97;5.07;;;25.80;96.00;;;;;;6212171;23;20003;-73
2022/06/16 08:09:34;;;;;;;6.80;5.60;;;25.90;94.90;;;;;;6211262;23;20000;-73
2022/06/16 08:12:03;;;;;;;6.18;5.68;;;25.90;95.60;;;;;;6209976;23;20009;-73
2022/06/16 08:14:30;;;;;;;6.30;5.70;;;25.90;94.50;;;;;;6209393;23;20009;-74
2022/06/16 08:16:55;;;;;;;11.10;6.45;;;26.00;94.40;;;;;;6212858;23;20000;-74
2022/06/16 08:19:22;;;;;;;6.50;5.90;;;26.00;94.60;;;;;;6215808;23;20016;-74
2022/06/16 08:21:48;;;;;;;11.05;7.28;;;26.10;93.80;;;;;;6214346;23;20008;-74
2022/06/16 08:24:14;;;;;;;9.80;6.20;;;26.10;93.50;;;;;;6216069;23;20066;-74
2022/06/16 08:26:41;;;;;;;6.47;5.88;;;26.20;94.30;;;;;;6215678;23;20000;-74
2022/06/16 08:29:10;;;;;;;6.60;5.95;;;26.30;94.40;;;;;;6209001;23;20766;-74
2022/06/16 08:31:36;;;;;;;6.07;5.55;;;26.30;94.30;;;;;;6210198;23;20051;-74
2022/06/16 08:34:03;;;;;;;7.90;6.47;;;26.30;95.40;;;;;;6211283;23;20004;-74
2022/06/16 08:36:29;;;;;;;6.90;6.40;;;26.30;94.30;;;;;;6211297;23;20000;-74
2022/06/16 08:38:55;;;;;;;7.82;6.18;;;26.40;95.30;;;;;;6210846;23;20001;-74
2022/06/16 08:41:30;;;;;;;5.65;5.25;;;26.40;95.00;;;;;;6209977;23;20095;-74
2022/06/16 08:44:15;;;;;;;7.05;6.45;;;26.40;94.10;;;;;;6212318;23;20024;-75
2022/06/16 08:47:00;;;;;;;6.40;5.95;;;26.40;95.00;;;;;;6210561;23;20011;-73
2022/06/16 08:49:42;;;;;;;7.63;6.90;;;26.40;94.80;;;;;;6210759;23;20001;-74
2022/06/16 08:52:28;;;;;;;8.15;7.35;;;26.60;95.20;;;;;;6211491;23;20079;-74
2022/06/16 08:55:27;;;;;;;9.27;7.78;;;26.60;95.50;;;;;;6210914;23;20087;-73
2022/06/16 08:57:56;;;;;;;7.97;7.28;;;26.70;96.70;;;;;;6208212;23;20425;-74
2022/06/16 09:00:36;;;;;;;7.95;7.15;;;26.70;96.30;;;;;;6210127;23;20745;-74
2022/06/16 09:03:27;;;;;;;9.48;7.50;;;26.80;94.50;;;;;;6211934;23;19996;-74
2022/06/16 09:05:58;;;;;;;7.13;6.53;;;26.70;93.40;;;;;;6211134;23;20329;-74
2022/06/16 09:09:03;;;;;;;8.25;7.55;;;26.80;94.00;;;;;;6212129;23;20009;-73
2022/06/16 09:11:55;;;;;;;8.02;7.38;;;26.80;94.40;;;;;;6210953;23;20054;-74
2022/06/16 09:17:41;;;;;;;10.43;6.88;;;26.90;95.00;;;;;;6211570;23;20112;-74
2022/06/16 09:20:36;;;;;;;7.85;7.10;;;27.00;95.80;;;;;;6211209;23;20019;-74
2022/06/16 09:23:22;;;;;;;7.72;7.07;;;27.10;96.10;;;;;;6176051;23;20015;-74
2022/06/16 09:26:09;;;;;;;7.60;6.85;;;27.10;95.30;;;;;;6211533;23;19997;-73
2022/06/16 09:28:47;;;;;;;10.95;6.78;;;27.20;94.50;;;;;;6210774;23;20017;-73
2022/06/16 09:31:23;;;;;;;8.85;6.68;;;27.20;95.20;;;;;;6210297;23;20317;-73
2022/06/16 09:33:58;;;;;;;7.57;6.85;;;27.30;95.80;;;;;;6211011;23;20421;-74
2022/06/16 09:36:29;;;;;;;8.40;7.70;;;27.40;95.70;;;;;;6210940;23;20011;-73
2022/06/16 09:39:03;;;;;;;7.63;6.78;;;27.40;94.50;;;;;;6211307;23;20625;-73
2022/06/16 09:44:47;;;;;;;8.57;7.75;;;27.50;93.40;;;;;;6211102;23;20015;-73
2022/06/16 09:47:18;;;;;;;13.27;7.13;;;27.60;94.30;;;;;;6214000;23;20008;-78
2022/06/16 09:49:49;;;;;;;7.60;6.60;;;27.70;93.70;;;;;;6215657;23;19996;-78
2022/06/16 09:52:33;;;;;;;7.55;6.95;;;27.80;95.40;;;;;;6208322;23;20338;-79
2022/06/16 09:55:05;;;;;;;8.32;7.63;;;28.00;95.40;;;;;;6211649;23;20004;-78
2022/06/16 09:57:52;;;;;;;10.75;7.82;;;28.00;93.50;;;;;;6211794;23;20008;-78
2022/06/16 10:00:21;;;;;;;8.43;7.60;;;28.00;92.60;;;;;;6211441;23;20022;-79
2022/06/16 10:02:57;;;;;;;9.15;7.55;;;28.00;92.30;;;;;;6212149;23;20008;-78
2022/06/16 10:05:37;;;;;;;8.68;7.70;;;28.00;91.90;;;;;;6212005;23;20482;-78
2022/06/16 10:08:20;;;;;;;7.97;7.18;;;28.00;91.80;;;;;;6211619;23;20372;-78
2022/06/16 10:10:59;;;;;;;9.95;7.47;;;28.00;92.80;;;;;;6212177;23;20008;-78
2022/06/16 10:13:37;;;;;;;10.05;8.50;;;28.20;92.40;;;;;;6211741;23;20004;-78
2022/06/16 10:16:02;;;;;;;16.77;7.60;;;28.20;91.60;;;;;;6212086;23;20001;-78
2022/06/16 10:18:28;;;;;;;7.75;6.93;;;28.30;91.60;;;;;;6212448;23;20039;-78
2022/06/16 10:20:54;;;;;;;8.00;7.28;;;28.40;92.10;;;;;;6212467;23;20083;-78
2022/06/16 10:23:25;;;;;;;8.10;7.45;;;28.50;92.50;;;;;;6212030;23;20371;-78
2022/06/16 10:25:59;;;;;;;8.82;7.60;;;28.50;92.30;;;;;;6210587;23;20008;-78
2022/06/16 10:28:59;;;;;;;12.23;7.35;;;28.70;92.80;;;;;;6211660;23;20031;-78
2022/06/16 10:31:45;;;;;;;10.30;6.93;;;28.90;92.70;;;;;;6211658;23;20507;-78
2022/06/16 10:34:37;;;;;;;7.60;6.90;;;29.00;92.80;;;;;;6208458;23;20432;-78
2022/06/16 10:37:09;;;;;;;8.73;7.93;;;29.20;92.40;;;;;;6208203;23;20143;-77
2022/06/16 10:39:58;;;;;;;14.90;8.68;;;29.40;91.30;;;;;;6208103;23;20016;-77
2022/06/16 10:42:40;;;;;;;8.85;7.80;;;29.40;90.90;;;;;;6211217;23;20008;-78
2022/06/16 10:45:09;;;;;;;;;;;29.40;91.40;;;;;;6212323;23;20759;-78
2022/06/16 10:47:55;;;;;;;9.38;7.95;;;29.60;91.40;;;;;;6211051;23;19900;-78
2022/06/16 10:50:25;;;;;;;11.20;7.72;;;29.70;90.10;;;;;;6211778;23;20008;-78
2022/06/16 10:53:02;;;;;;;8.95;7.85;;;29.70;90.50;;;;;;6212101;23;20001;-78
2022/06/16 10:55:35;;;;;;;18.67;8.35;;;29.70;90.10;;;;;;6211712;23;20475;-78
2022/06/16 10:58:29;;;;;;;9.98;8.48;;;29.70;88.00;;;;;;6211881;23;20005;-78
2022/06/16 11:01:16;;;;;;;10.57;7.63;;;29.70;87.60;;;;;;6209602;23;20024;-77
2022/06/16 11:04:06;;;;;;;8.57;7.68;;;29.70;87.80;;;;;;6210719;23;20004;-78
2022/06/16 11:06:32;;;;;;;8.98;8.10;;;29.70;87.10;;;;;;6201615;23;20001;-77
2022/06/16 11:09:00;;;;;;;8.73;7.47;;;29.60;88.20;;;;;;6214501;23;20054;-78
2022/06/16 11:11:52;;;;;;;8.40;7.20;;;29.70;88.70;;;;;;6213971;23;20004;-77
2022/06/16 11:14:32;;;;;;;7.50;6.80;;;29.70;89.70;;;;;;6212434;23;20340;-78
2022/06/16 11:16:58;;;;;;;9.75;7.82;;;29.60;86.20;;;;;;6212585;23;20035;-78
2022/06/16 11:19:36;;;;;;;8.43;6.90;;;29.50;88.00;;;;;;6216546;23;19997;-78
2022/06/16 11:22:15;;;;;;;8.27;7.53;;;29.60;90.40;;;;;;6216921;23;20032;-78
2022/06/16 11:24:59;;;;;;;8.38;6.80;;;29.60;88.00;;;;;;6210803;23;20009;-77
2022/06/16 11:27:24;;;;;;;7.50;6.88;;;29.70;89.90;;;;;;6213305;23;20024;-78
2022/06/16 11:29:50;;;;;;;8.18;7.45;;;29.90;89.10;;;;;;6212640;23;20011;-78
2022/06/16 11:32:18;;;;;;;7.82;7.20;;;30.20;87.10;;;;;;6212740;23;20309;-78
2022/06/16 11:34:45;;;;;;;8.95;8.00;;;30.40;87.20;;;;;;6213345;23;19997;-78
2022/06/16 11:37:26;;;;;;;9.27;7.13;;;30.50;84.80;;;;;;6213212;23;20023;-78
2022/06/16 11:40:19;;;;;;;7.38;6.85;;;30.60;84.00;;;;;;6213265;23;20269;-77
2022/06/16 11:43:15;;;;;;;6.95;6.22;;;30.70;83.60;;;;;;6212481;23;20013;-77
2022/06/16 11:45:53;;;;;;;9.00;6.72;;;30.70;84.50;;;;;;6213847;23;20001;-77
2022/06/16 11:48:47;;;;;;;7.55;6.80;;;31.00;85.80;;;;;;6214359;23;20671;-78
2022/06/16 11:51:28;;;;;;;9.65;6.85;;;31.20;83.20;;;;;;6210413;23;20098;-78
2022/06/16 11:54:09;;;;;;;13.70;8.23;;;31.20;83.50;;;;;;6208369;23;20012;-78
2022/06/16 11:57:01;;;;;;;8.67;6.50;;;31.40;84.10;;;;;;6210483;23;20001;-78
2022/06/16 12:00:04;;;;;;;7.07;6.47;;;31.50;81.20;;;;;;6211369;23;20024;-78
2022/06/16 12:02:42;;;;;;;10.82;7.68;;;31.50;79.50;;;;;;6210907;23;20005;-78
2022/06/16 12:05:35;;;;;;;12.45;7.05;;;31.60;79.10;;;;;;6211140;23;20519;-78
2022/06/16 12:08:29;;;;;;;7.20;6.60;;;31.70;81.60;;;;;;6209368;23;20444;-78
2022/06/16 12:11:31;;;;;;;7.30;6.60;;;31.90;78.80;;;;;;6212297;23;20015;-78
2022/06/16 12:14:20;;;;;;;7.00;6.30;;;32.00;78.70;;;;;;6208681;23;20011;-78
2022/06/16 12:16:59;;;;;;;8.23;6.68;;;32.10;76.10;;;;;;6215330;23;20005;-79
2022/06/16 12:19:46;;;;;;;6.85;6.15;;;32.20;74.80;;;;;;6214600;23;20013;-78
2022/06/16 12:22:30;;;;;;;6.15;5.65;;;32.30;76.30;;;;;;6216031;23;20001;-74
2022/06/16 12:25:07;;;;;;;8.48;5.53;;;32.50;77.20;;;;;;6215987;23;20313;-74
2022/06/16 12:28:05;;;;;;;5.75;5.20;;;32.60;77.90;;;;;;6214693;23;19997;-74
2022/06/16 12:30:46;;;;;;;6.82;6.18;;;32.80;75.70;;;;;;6166117;23;20448;-73
2022/06/16 12:33:41;;;;;;;6.57;5.82;;;32.80;71.30;;;;;;6205543;23;20008;-73
2022/06/16 12:36:24;;;;;;;5.85;5.35;;;32.90;72.60;;;;;;6193248;23;20005;-73
2022/06/16 12:38:53;;;;;;;8.57;6.25;;;33.20;77.70;;;;;;6210554;23;20368;-73
2022/06/16 12:41:27;;;;;;;10.90;5.30;;;33.40;74.90;;;;;;6208838;23;20378;-73
2022/06/16 12:44:18;;;;;;;5.93;5.35;;;33.40;71.50;;;;;;6210177;23;20031;-74
2022/06/16 12:47:07;;;;;;;6.40;5.70;;;33.70;72.30;;;;;;6209405;23;20451;-73
2022/06/16 12:49:46;;;;;;;6.60;5.65;;;33.70;68.70;;;;;;6214542;23;20028;-73
2022/06/16 12:52:45;;;;;;;6.00;5.47;;;33.90;69.80;;;;;;6215594;23;20005;-73
2022/06/16 12:55:27;;;;;;;9.65;6.00;;;33.90;69.50;;;;;;6211120;23;20012;-73
2022/06/16 12:58:02;;;;;;;6.53;5.68;;;34.10;67.20;;;;;;6214053;23;20031;-73
2022/06/16 13:00:33;;;;;;;5.65;5.35;;;34.10;68.30;;;;;;6213388;23;20031;-73
2022/06/16 13:03:15;;;;;;;5.68;5.05;;;34.20;66.50;;;;;;6214299;23;20029;-73
2022/06/16 13:05:42;;;;;;;7.80;5.60;;;34.30;63.70;;;;;;6213688;23;20451;-74
2022/06/16 13:08:09;;;;;;;5.57;5.13;;;34.40;65.10;;;;;;6214861;23;20011;-73
2022/06/16 13:10:43;;;;;;;6.53;5.43;;;34.60;64.40;;;;;;6215951;23;20001;-73
2022/06/16 13:13:10;;;;;;;6.55;5.75;;;34.60;65.20;;;;;;6215706;23;20435;-73
2022/06/16 13:15:43;;;;;;;5.60;5.10;;;34.40;63.60;;;;;;6215806;23;20011;-74
2022/06/16 13:18:16;;;;;;;5.95;5.40;;;34.50;62.90;;;;;;6215629;23;20008;-73
2022/06/16 13:20:45;;;;;;;6.03;5.45;;;34.50;62.80;;;;;;6213590;23;20642;-73
2022/06/16 13:23:17;;;;;;;6.20;5.78;;;34.30;63.70;;;;;;6215568;23;20055;-73
2022/06/16 13:25:53;;;;;;;7.65;5.28;;;34.30;61.20;;;;;;6215245;23;19996;-73
2022/06/16 13:28:36;;;;;;;8.18;5.70;;;34.50;62.90;;;;;;6214995;23;20302;-73
2022/06/16 13:31:22;;;;;;;7.93;5.47;;;34.60;62.30;;;;;;6215447;23;20000;-73
2022/06/16 13:34:10;;;;;;;6.75;5.03;;;34.80;59.80;;;;;;6215375;23;20012;-73
2022/06/16 13:36:35;;;;;;;6.93;5.43;;;34.60;60.90;;;;;;6215089;23;20314;-73
2022/06/16 13:39:05;;;;;;;5.78;5.28;;;34.60;61.30;;;;;;6214468;23;20036;-73
2022/06/16 13:41:44;;;;;;;5.57;5.05;;;34.90;63.00;;;;;;6214153;23;20008;-73
2022/06/16 13:44:24;;;;;;;6.03;5.43;;;34.80;59.30;;;;;;6215426;23;20058;-73